Time,TemperatureF,DewpointF,PressureIn,WindDirection,WindDirectionDegrees,WindSpeedMPH,WindSpeedGustMPH,Humidity,HourlyPrecipIn,Conditions,Clouds,dailyrainin,SolarRadiationWatts/m^2,SoftwareType,DateUTC
2013-06-11 00:00:00,55.5,50.1,29.95,SSW,207,0.0,3.0,82,0.00,,,0.00,0002,Weather View 32 v70,2013-06-11 07:00:00,
2013-06-11 00:05:00,55.4,50.0,29.95,SSW,207,0.0,3.0,82,0.00,,,0.00,0001,Weather View 32 v70,2013-06-11 07:05:00,
2013-06-11 00:10:00,55.4,50.3,29.95,SSW,207,0.0,3.0,83,0.00,,,0.00,0002,Weather View 32 v70,2013-06-11 07:10:00,
2013-06-11 00:20:00,55.3,50.2,29.95,SSW,207,0.0,1.0,83,0.00,,,0.00,0002,Weather View 32 v70,2013-06-11 07:20:00,
2013-06-11 00:25:00,55.3,50.2,29.95,SSW,207,0.0,0.0,83,0.00,,,0.00,0002,Weather View 32 v70,2013-06-11 07:25:00,
2013-06-11 00:30:00,55.2,50.1,29.95,SSW,207,0.0,1.0,83,0.00,,,0.00,0002,Weather View 32 v70,2013-06-11 07:30:00,
2013-06-11 00:35:00,55.1,50.0,29.95,SSW,207,0.0,1.0,83,0.00,,,0.00,0002,Weather View 32 v70,2013-06-11 07:35:00,
2013-06-11 00:45:00,55.0,50.2,29.95,SSW,207,0.0,1.0,84,0.00,,,0.00,0002,Weather View 32 v70,2013-06-11 07:45:00,
2013-06-11 00:50:00,54.8,50.0,29.95,WSW,252,0.0,2.0,84,0.00,,,0.00,0001,Weather View 32 v70,2013-06-11 07:50:00,
2013-06-11 00:55:00,54.8,50.0,29.95,West,274,0.0,2.0,84,0.00,,,0.00,0002,Weather View 32 v70,2013-06-11 07:55:00,
2013-06-11 01:00:00,54.7,50.3,29.95,SSW,207,0.0,2.0,85,0.00,,,0.00,0002,Weather View 32 v70,2013-06-11 08:00:00,
2013-06-11 01:05:00,54.7,50.3,29.95,West,274,1.0,2.0,85,0.00,,,0.00,0002,Weather View 32 v70,2013-06-11 08:05:00,
2013-06-11 01:15:00,55.1,50.7,29.96,NW,319,1.0,4.0,85,0.00,,,0.00,0001,Weather View 32 v70,2013-06-11 08:15:00,
2013-06-11 01:25:00,55.4,51.3,29.96,SSE,162,1.0,8.0,86,0.00,,,0.00,0001,Weather View 32 v70,2013-06-11 08:25:00,
2013-06-11 01:30:00,55.6,51.5,29.96,SSW,207,1.0,8.0,86,0.00,,,0.00,0001,Weather View 32 v70,2013-06-11 08:30:00,
2013-06-11 01:35:00,55.4,51.0,29.96,WNW,297,4.0,8.0,85,0.00,,,0.00,0001,Weather View 32 v70,2013-06-11 08:35:00,
2013-06-11 01:45:00,55.1,51.0,29.96,ESE,117,1.0,8.0,86,0.00,,,0.00,0001,Weather View 32 v70,2013-06-11 08:45:00,
2013-06-11 01:50:00,54.9,50.8,29.96,WNW,297,3.0,8.0,86,0.00,,,0.00,0002,Weather View 32 v70,2013-06-11 08:50:00,
2013-06-11 01:55:00,54.8,51.0,29.96,North,4,3.0,8.0,87,0.00,,,0.00,0001,Weather View 32 v70,2013-06-11 08:55:00,
2013-06-11 02:00:00,54.8,51.0,29.96,West,274,4.0,8.0,87,0.00,,,0.00,0002,Weather View 32 v70,2013-06-11 09:00:00,
2013-06-11 02:05:00,54.8,51.0,29.96,NW,319,2.0,8.0,87,0.00,,,0.00,0001,Weather View 32 v70,2013-06-11 09:05:00,
2013-06-11 02:15:00,54.8,51.3,29.96,WSW,252,4.0,10.0,88,0.00,,,0.00,0001,Weather View 32 v70,2013-06-11 09:15:00,
2013-06-11 02:20:00,54.9,51.4,29.96,WNW,297,1.0,10.0,88,0.00,,,0.00,0002,Weather View 32 v70,2013-06-11 09:20:00,
2013-06-11 02:25:00,54.9,51.4,29.96,NW,319,8.0,10.0,88,0.00,,,0.00,0001,Weather View 32 v70,2013-06-11 09:25:00,
2013-06-11 02:30:00,55.1,51.6,29.96,NW,319,7.0,10.0,88,0.00,,,0.00,0001,Weather View 32 v70,2013-06-11 09:30:00,
2013-06-11 02:40:00,55.3,51.8,29.96,NW,319,3.0,10.0,88,0.00,,,0.00,0001,Weather View 32 v70,2013-06-11 09:40:00,
2013-06-11 02:45:00,55.3,51.8,29.96,NW,319,4.0,10.0,88,0.00,,,0.00,0001,Weather View 32 v70,2013-06-11 09:45:00,
2013-06-11 02:50:00,55.4,51.6,29.95,North,4,0.0,10.0,87,0.00,,,0.00,0001,Weather View 32 v70,2013-06-11 09:50:00,
2013-06-11 02:55:00,55.5,51.7,29.96,North,4,1.0,10.0,87,0.00,,,0.00,0001,Weather View 32 v70,2013-06-11 09:55:00,
2013-06-11 03:05:00,55.6,51.8,29.96,West,274,2.0,10.0,87,0.00,,,0.00,0001,Weather View 32 v70,2013-06-11 10:05:00,
2013-06-11 03:10:00,55.6,51.8,29.95,WSW,252,2.0,10.0,87,0.00,,,0.00,0002,Weather View 32 v70,2013-06-11 10:10:00,
2013-06-11 03:15:00,55.6,51.8,29.95,NW,319,0.0,10.0,87,0.00,,,0.00,0001,Weather View 32 v70,2013-06-11 10:15:00,
2013-06-11 03:20:00,55.7,51.9,29.95,SSW,207,0.0,9.0,87,0.00,,,0.00,0002,Weather View 32 v70,2013-06-11 10:20:00,
2013-06-11 03:25:00,55.7,51.9,29.95,West,274,0.0,9.0,87,0.00,,,0.00,0001,Weather View 32 v70,2013-06-11 10:25:00,
2013-06-11 03:30:00,55.8,51.7,29.95,SSW,207,0.0,9.0,86,0.00,,,0.00,0002,Weather View 32 v70,2013-06-11 10:30:00,
2013-06-11 03:40:00,55.9,51.8,29.95,West,274,0.0,6.0,86,0.00,,,0.00,0001,Weather View 32 v70,2013-06-11 10:40:00,
2013-06-11 03:45:00,56.0,51.9,29.95,SSW,207,0.0,6.0,86,0.00,,,0.00,0002,Weather View 32 v70,2013-06-11 10:45:00,
2013-06-11 03:50:00,55.9,51.8,29.95,SSE,162,1.0,3.0,86,0.00,,,0.00,0002,Weather View 32 v70,2013-06-11 10:50:00,
2013-06-11 04:00:00,55.9,51.8,29.95,SSE,162,0.0,3.0,86,0.00,,,0.00,0001,Weather View 32 v70,2013-06-11 11:00:00,
2013-06-11 04:05:00,55.9,51.8,29.94,SE,139,0.0,3.0,86,0.00,,,0.00,0001,Weather View 32 v70,2013-06-11 11:05:00,
2013-06-11 04:10:00,56.0,51.9,29.94,SSE,162,0.0,3.0,86,0.00,,,0.00,0001,Weather View 32 v70,2013-06-11 11:10:00,
2013-06-11 04:15:00,56.1,52.0,29.95,SW,229,0.0,3.0,86,0.00,,,0.00,0001,Weather View 32 v70,2013-06-11 11:15:00,
2013-06-11 04:25:00,56.2,52.1,29.95,SSE,162,0.0,3.0,86,0.00,,,0.00,0001,Weather View 32 v70,2013-06-11 11:25:00,
2013-06-11 04:30:00,56.2,51.7,29.95,SSE,162,0.0,3.0,85,0.00,,,0.00,0001,Weather View 32 v70,2013-06-11 11:30:00,
2013-06-11 04:35:00,56.3,51.8,29.95,ESE,117,0.0,3.0,85,0.00,,,0.00,0002,Weather View 32 v70,2013-06-11 11:35:00,
2013-06-11 04:40:00,56.3,52.2,29.95,NNW,342,3.0,3.0,86,0.00,,,0.00,0002,Weather View 32 v70,2013-06-11 11:40:00,
2013-06-11 04:45:00,56.4,52.3,29.95,NW,319,3.0,3.0,86,0.00,,,0.00,0001,Weather View 32 v70,2013-06-11 11:45:00,
2013-06-11 04:50:00,56.5,52.4,29.95,NNW,342,1.0,4.0,86,0.00,,,0.00,0001,Weather View 32 v70,2013-06-11 11:50:00,
2013-06-11 05:00:00,56.6,52.1,29.95,WNW,297,0.0,4.0,85,0.00,,,0.00,0001,Weather View 32 v70,2013-06-11 12:00:00,
2013-06-11 05:05:00,56.6,52.1,29.94,ENE,72,0.0,4.0,85,0.00,,,0.00,0002,Weather View 32 v70,2013-06-11 12:05:00,
2013-06-11 05:10:00,56.5,52.0,29.94,NNW,342,2.0,4.0,85,0.00,,,0.00,0001,Weather View 32 v70,2013-06-11 12:10:00,
2013-06-11 05:20:00,56.6,52.1,29.95,NNW,342,1.0,4.0,85,0.00,,,0.00,0002,Weather View 32 v70,2013-06-11 12:20:00,
2013-06-11 05:30:00,56.5,52.0,29.95,NW,319,3.0,4.0,85,0.00,,,0.00,0002,Weather View 32 v70,2013-06-11 12:30:00,
2013-06-11 05:35:00,56.7,52.2,29.95,NW,319,2.0,4.0,85,0.00,,,0.00,0002,Weather View 32 v70,2013-06-11 12:35:00,
2013-06-11 05:40:00,56.7,52.2,29.95,North,4,1.0,4.0,85,0.00,,,0.00,0002,Weather View 32 v70,2013-06-11 12:40:00,
2013-06-11 05:45:00,56.8,52.3,29.95,North,4,0.0,4.0,85,0.00,,,0.00,0003,Weather View 32 v70,2013-06-11 12:45:00,
2013-06-11 05:50:00,56.8,52.3,29.95,NNW,342,1.0,4.0,85,0.00,,,0.00,0004,Weather View 32 v70,2013-06-11 12:50:00,
2013-06-11 06:00:00,56.9,52.4,29.96,West,274,0.0,4.0,85,0.00,,,0.00,0009,Weather View 32 v70,2013-06-11 13:00:00,
2013-06-11 06:05:00,56.9,52.4,29.96,West,274,0.0,4.0,85,0.00,,,0.00,0010,Weather View 32 v70,2013-06-11 13:05:00,
2013-06-11 06:10:00,56.9,52.4,29.95,SSW,207,0.0,4.0,85,0.00,,,0.00,0010,Weather View 32 v70,2013-06-11 13:10:00,
2013-06-11 06:15:00,56.9,52.1,29.95,SSE,162,0.0,4.0,84,0.00,,,0.00,0012,Weather View 32 v70,2013-06-11 13:15:00,
2013-06-11 06:25:00,57.0,52.2,29.96,South,184,0.0,4.0,84,0.00,,,0.00,0010,Weather View 32 v70,2013-06-11 13:25:00,
2013-06-11 06:30:00,57.0,52.2,29.97,South,184,1.0,4.0,84,0.00,,,0.00,0010,Weather View 32 v70,2013-06-11 13:30:00,
2013-06-11 06:35:00,57.1,52.3,29.97,SE,139,0.0,3.0,84,0.00,,,0.00,0019,Weather View 32 v70,2013-06-11 13:35:00,
2013-06-11 06:40:00,57.2,52.4,29.97,SE,139,0.0,3.0,84,0.00,,,0.00,0031,Weather View 32 v70,2013-06-11 13:40:00,
2013-06-11 06:50:00,57.3,52.5,29.97,SE,139,0.0,2.0,84,0.00,,,0.00,0043,Weather View 32 v70,2013-06-11 13:50:00,
2013-06-11 06:55:00,57.4,52.6,29.97,SE,139,0.0,2.0,84,0.00,,,0.00,0045,Weather View 32 v70,2013-06-11 13:55:00,
2013-06-11 07:00:00,57.5,52.7,29.97,SSE,162,0.0,2.0,84,0.00,,,0.00,0048,Weather View 32 v70,2013-06-11 14:00:00,
2013-06-11 07:05:00,57.7,52.9,29.97,SE,139,0.0,2.0,84,0.00,,,0.00,0054,Weather View 32 v70,2013-06-11 14:05:00,
2013-06-11 07:15:00,57.9,52.8,29.97,ESE,117,0.0,2.0,83,0.00,,,0.00,0065,Weather View 32 v70,2013-06-11 14:15:00,
2013-06-11 07:20:00,58.0,52.9,29.97,SSE,162,0.0,3.0,83,0.00,,,0.00,0079,Weather View 32 v70,2013-06-11 14:20:00,
2013-06-11 07:25:00,58.2,53.0,29.97,SE,139,1.0,3.0,83,0.00,,,0.00,0091,Weather View 32 v70,2013-06-11 14:25:00,
2013-06-11 07:30:00,58.2,52.7,29.98,SE,139,1.0,3.0,82,0.00,,,0.00,0101,Weather View 32 v70,2013-06-11 14:30:00,
2013-06-11 07:35:00,58.2,52.7,29.98,SE,139,1.0,4.0,82,0.00,,,0.00,0114,Weather View 32 v70,2013-06-11 14:35:00,
2013-06-11 07:45:00,58.7,53.2,29.98,East,94,2.0,4.0,82,0.00,,,0.00,0125,Weather View 32 v70,2013-06-11 14:45:00,
2013-06-11 07:50:00,58.8,53.0,29.98,East,94,1.0,4.0,81,0.00,,,0.00,0134,Weather View 32 v70,2013-06-11 14:50:00,
2013-06-11 07:55:00,59.0,53.2,29.98,South,184,2.0,4.0,81,0.00,,,0.00,0155,Weather View 32 v70,2013-06-11 14:55:00,
2013-06-11 08:00:00,58.9,53.1,29.98,SE,139,2.0,5.0,81,0.00,,,0.00,0169,Weather View 32 v70,2013-06-11 15:00:00,
2013-06-11 08:10:00,59.4,53.2,29.98,SE,139,2.0,5.0,80,0.00,,,0.00,0259,Weather View 32 v70,2013-06-11 15:10:00,
2013-06-11 08:15:00,59.9,53.4,29.98,SE,139,1.0,5.0,79,0.00,,,0.00,0356,Weather View 32 v70,2013-06-11 15:15:00,
2013-06-11 08:20:00,60.3,53.4,29.98,SE,139,2.0,6.0,78,0.00,,,0.00,0402,Weather View 32 v70,2013-06-11 15:20:00,
2013-06-11 08:25:00,60.6,53.3,29.98,SW,229,2.0,6.0,77,0.00,,,0.00,0283,Weather View 32 v70,2013-06-11 15:25:00,
2013-06-11 08:30:00,60.5,52.9,29.98,NNE,27,3.0,6.0,76,0.00,,,0.00,0255,Weather View 32 v70,2013-06-11 15:30:00,
2013-06-11 08:40:00,61.0,53.0,29.98,NW,319,3.0,6.0,75,0.00,,,0.00,0483,Weather View 32 v70,2013-06-11 15:40:00,
2013-06-11 08:45:00,61.4,53.4,29.98,NNE,27,4.0,6.0,75,0.00,,,0.00,0535,Weather View 32 v70,2013-06-11 15:45:00,
2013-06-11 08:50:00,61.7,53.3,29.98,NE,49,4.0,6.0,74,0.00,,,0.00,0480,Weather View 32 v70,2013-06-11 15:50:00,
2013-06-11 09:00:00,63.0,53.8,29.98,NNE,27,1.0,6.0,72,0.00,,,0.00,0505,Weather View 32 v70,2013-06-11 16:00:00,
2013-06-11 09:05:00,63.1,53.5,29.98,NNE,27,3.0,6.0,71,0.00,,,0.00,0518,Weather View 32 v70,2013-06-11 16:05:00,
2013-06-11 09:10:00,63.3,53.7,29.98,West,274,1.0,6.0,71,0.00,,,0.00,0536,Weather View 32 v70,2013-06-11 16:10:00,
2013-06-11 09:15:00,63.3,53.3,29.98,NNE,27,3.0,7.0,70,0.00,,,0.00,0544,Weather View 32 v70,2013-06-11 16:15:00,
2013-06-11 09:20:00,63.7,53.7,29.98,North,4,2.0,7.0,70,0.00,,,0.00,0550,Weather View 32 v70,2013-06-11 16:20:00,
2013-06-11 09:30:00,63.9,53.5,29.98,NNE,27,5.0,8.0,69,0.00,,,0.00,0577,Weather View 32 v70,2013-06-11 16:30:00,
2013-06-11 09:35:00,64.4,54.0,29.98,West,274,3.0,8.0,69,0.00,,,0.00,0589,Weather View 32 v70,2013-06-11 16:35:00,
2013-06-11 09:40:00,65.1,54.2,29.98,NNE,27,6.0,8.0,68,0.00,,,0.00,0601,Weather View 32 v70,2013-06-11 16:40:00,
2013-06-11 09:45:00,64.9,53.6,29.98,NNE,27,2.0,11.0,67,0.00,,,0.00,0610,Weather View 32 v70,2013-06-11 16:45:00,
2013-06-11 09:54:00,65.1,53.8,29.98,NNW,342,4.0,11.0,67,0.00,,,0.00,0624,Weather View 32 v70,2013-06-11 16:54:00,
2013-06-11 10:00:00,65.1,53.0,29.98,NW,319,11.0,13.0,65,0.00,,,0.00,0648,Weather View 32 v70,2013-06-11 17:00:00,
2013-06-11 10:05:00,63.8,52.2,29.98,NW,319,13.0,17.0,66,0.00,,,0.00,0648,Weather View 32 v70,2013-06-11 17:05:00,
2013-06-11 10:10:00,64.3,53.1,29.98,WNW,297,7.0,17.0,67,0.00,,,0.00,0666,Weather View 32 v70,2013-06-11 17:10:00,
2013-06-11 10:15:00,64.0,52.8,29.98,NNW,342,5.0,17.0,67,0.00,,,0.00,0673,Weather View 32 v70,2013-06-11 17:15:00,
2013-06-11 10:25:00,63.3,52.5,29.98,NW,319,8.0,17.0,68,0.00,,,0.00,0665,Weather View 32 v70,2013-06-11 17:25:00,
2013-06-11 10:30:00,63.7,52.9,29.98,WNW,297,7.0,17.0,68,0.00,,,0.00,0669,Weather View 32 v70,2013-06-11 17:30:00,
2013-06-11 10:35:00,64.0,52.8,29.98,WNW,297,7.0,17.0,67,0.00,,,0.00,0681,Weather View 32 v70,2013-06-11 17:35:00,
2013-06-11 10:40:00,64.3,53.1,29.98,West,274,7.0,17.0,67,0.00,,,0.00,0720,Weather View 32 v70,2013-06-11 17:40:00,
2013-06-11 10:45:00,65.0,53.3,29.98,NW,319,6.0,17.0,66,0.00,,,0.00,0727,Weather View 32 v70,2013-06-11 17:45:00,
2013-06-11 10:54:00,65.3,53.2,29.98,NW,319,9.0,17.0,65,0.00,,,0.00,0732,Weather View 32 v70,2013-06-11 17:54:00,
2013-06-11 11:00:00,65.8,53.7,29.99,NW,319,7.0,17.0,65,0.00,,,0.00,0746,Weather View 32 v70,2013-06-11 18:00:00,
2013-06-11 11:05:00,65.6,53.1,29.99,North,4,8.0,17.0,64,0.00,,,0.00,0763,Weather View 32 v70,2013-06-11 18:05:00,
2013-06-11 11:15:00,65.9,53.3,29.99,NW,319,9.0,17.0,64,0.00,,,0.00,0776,Weather View 32 v70,2013-06-11 18:15:00,
2013-06-11 11:20:00,65.9,52.9,29.99,NNW,342,8.0,17.0,63,0.00,,,0.00,0779,Weather View 32 v70,2013-06-11 18:20:00,
2013-06-11 11:25:00,66.0,53.0,29.99,NW,319,7.0,17.0,63,0.00,,,0.00,0781,Weather View 32 v70,2013-06-11 18:25:00,
2013-06-11 11:30:00,66.7,53.7,29.99,North,4,5.0,17.0,63,0.00,,,0.00,0786,Weather View 32 v70,2013-06-11 18:30:00,
2013-06-11 11:35:00,66.8,53.3,29.99,NNW,342,6.0,14.0,62,0.00,,,0.00,0796,Weather View 32 v70,2013-06-11 18:35:00,
2013-06-11 11:45:00,68.1,54.1,29.99,NNW,342,7.0,14.0,61,0.00,,,0.00,0824,Weather View 32 v70,2013-06-11 18:45:00,
2013-06-11 11:50:00,68.2,53.7,29.99,NW,319,9.0,14.0,60,0.00,,,0.00,0826,Weather View 32 v70,2013-06-11 18:50:00,
2013-06-11 11:55:00,68.5,53.6,29.99,West,274,4.0,14.0,59,0.00,,,0.00,0828,Weather View 32 v70,2013-06-11 18:55:00,
2013-06-11 12:05:00,68.6,53.2,29.98,NW,319,4.0,14.0,58,0.00,,,0.00,0834,Weather View 32 v70,2013-06-11 19:05:00,
2013-06-11 12:15:00,69.9,53.9,29.98,WNW,297,3.0,14.0,57,0.00,,,0.00,0849,Weather View 32 v70,2013-06-11 19:15:00,
2013-06-11 12:20:00,70.5,54.0,29.98,North,4,3.0,14.0,56,0.00,,,0.00,0859,Weather View 32 v70,2013-06-11 19:20:00,
2013-06-11 12:25:00,70.8,53.8,29.98,NNW,342,4.0,14.0,55,0.00,,,0.00,0863,Weather View 32 v70,2013-06-11 19:25:00,
2013-06-11 12:30:00,71.5,53.9,29.98,NW,319,1.0,14.0,54,0.00,,,0.00,0869,Weather View 32 v70,2013-06-11 19:30:00,
2013-06-11 12:35:00,71.7,54.1,29.98,WNW,297,5.0,13.0,54,0.00,,,0.00,0864,Weather View 32 v70,2013-06-11 19:35:00,
2013-06-11 12:45:00,73.0,54.8,29.97,SSE,162,0.0,13.0,53,0.00,,,0.00,0893,Weather View 32 v70,2013-06-11 19:45:00,
2013-06-11 12:50:00,73.3,54.0,29.97,ENE,72,3.0,13.0,51,0.00,,,0.00,0896,Weather View 32 v70,2013-06-11 19:50:00,
2013-06-11 12:55:00,73.8,54.5,29.97,West,274,1.0,10.0,51,0.00,,,0.00,0899,Weather View 32 v70,2013-06-11 19:55:00,
2013-06-11 13:00:00,73.2,53.4,29.97,NE,49,2.0,9.0,50,0.00,,,0.00,0902,Weather View 32 v70,2013-06-11 20:00:00,
2013-06-11 13:10:00,74.6,54.1,29.96,SW,229,4.0,9.0,49,0.00,,,0.00,0870,Weather View 32 v70,2013-06-11 20:10:00,
2013-06-11 13:15:00,75.3,54.8,29.96,ENE,72,4.0,9.0,49,0.00,,,0.00,0900,Weather View 32 v70,2013-06-11 20:15:00,
2013-06-11 13:20:00,75.2,54.1,29.96,NE,49,8.0,9.0,48,0.00,,,0.00,0913,Weather View 32 v70,2013-06-11 20:20:00,
2013-06-11 13:25:00,74.9,53.8,29.96,NW,319,7.0,9.0,48,0.00,,,0.00,0907,Weather View 32 v70,2013-06-11 20:25:00,
2013-06-11 13:30:00,74.4,53.9,29.95,WNW,297,4.0,10.0,49,0.00,,,0.00,0927,Weather View 32 v70,2013-06-11 20:30:00,
2013-06-11 13:40:00,75.5,54.9,29.95,ESE,117,2.0,10.0,49,0.00,,,0.00,0822,Weather View 32 v70,2013-06-11 20:40:00,
2013-06-11 13:45:00,76.2,55.0,29.95,NNE,27,3.0,10.0,48,0.00,,,0.00,0821,Weather View 32 v70,2013-06-11 20:45:00,
2013-06-11 13:50:00,75.8,54.1,29.95,WNW,297,7.0,12.0,47,0.00,,,0.00,0823,Weather View 32 v70,2013-06-11 20:50:00,
2013-06-11 13:55:00,75.7,54.6,29.95,WNW,297,5.0,12.0,48,0.00,,,0.00,0600,Weather View 32 v70,2013-06-11 20:55:00,
2013-06-11 14:00:00,75.4,54.3,29.94,NW,319,4.0,12.0,48,0.00,,,0.00,0526,Weather View 32 v70,2013-06-11 21:00:00,
2013-06-11 14:10:00,76.2,55.0,29.94,NE,49,3.0,12.0,48,0.00,,,0.00,0452,Weather View 32 v70,2013-06-11 21:10:00,
2013-06-11 14:15:00,76.7,54.9,29.94,NW,319,8.0,12.0,47,0.00,,,0.00,0947,Weather View 32 v70,2013-06-11 21:15:00,
2013-06-11 14:20:00,76.3,53.9,29.94,West,274,5.0,12.0,46,0.00,,,0.00,0981,Weather View 32 v70,2013-06-11 21:20:00,
2013-06-11 14:25:00,76.4,54.6,29.93,WNW,297,6.0,12.0,47,0.00,,,0.00,0739,Weather View 32 v70,2013-06-11 21:25:00,
2013-06-11 14:30:00,76.3,54.5,29.94,NW,319,6.0,12.0,47,0.00,,,0.00,0419,Weather View 32 v70,2013-06-11 21:30:00,
2013-06-11 14:40:00,75.6,53.9,29.94,NNW,342,5.0,12.0,47,0.00,,,0.00,0394,Weather View 32 v70,2013-06-11 21:40:00,
2013-06-11 14:45:00,75.0,53.3,29.93,NNE,27,7.0,12.0,47,0.00,,,0.00,0691,Weather View 32 v70,2013-06-11 21:45:00,
2013-06-11 14:50:00,76.3,55.1,29.93,West,274,1.0,12.0,48,0.00,,,0.00,0759,Weather View 32 v70,2013-06-11 21:50:00,
2013-06-11 14:55:00,76.6,54.2,29.93,NW,319,7.0,12.0,46,0.00,,,0.00,0703,Weather View 32 v70,2013-06-11 21:55:00,
2013-06-11 15:05:00,76.5,54.7,29.93,NNW,342,4.0,15.0,47,0.00,,,0.00,0663,Weather View 32 v70,2013-06-11 22:05:00,
2013-06-11 15:10:00,77.0,54.6,29.93,West,274,6.0,15.0,46,0.00,,,0.00,0706,Weather View 32 v70,2013-06-11 22:10:00,
2013-06-11 15:15:00,76.8,54.4,29.92,WNW,297,6.0,15.0,46,0.00,,,0.00,0591,Weather View 32 v70,2013-06-11 22:15:00,
2013-06-11 15:20:00,76.7,53.7,29.93,WSW,252,7.0,15.0,45,0.00,,,0.00,0722,Weather View 32 v70,2013-06-11 22:20:00,
2013-06-11 15:25:00,77.1,54.7,29.92,South,184,3.0,15.0,46,0.00,,,0.00,0540,Weather View 32 v70,2013-06-11 22:25:00,
2013-06-11 15:30:00,77.1,53.4,29.93,SW,229,2.0,15.0,44,0.00,,,0.00,0596,Weather View 32 v70,2013-06-11 22:30:00,
2013-06-11 15:40:00,76.9,53.9,29.92,West,274,4.0,15.0,45,0.00,,,0.00,0530,Weather View 32 v70,2013-06-11 22:40:00,
2013-06-11 15:50:00,75.8,53.5,29.92,West,274,6.0,15.0,46,0.00,,,0.00,0552,Weather View 32 v70,2013-06-11 22:50:00,
2013-06-11 15:55:00,75.6,53.3,29.92,West,274,11.0,15.0,46,0.00,,,0.00,0736,Weather View 32 v70,2013-06-11 22:55:00,
2013-06-11 16:00:00,75.8,53.5,29.92,West,274,6.0,15.0,46,0.00,,,0.00,0572,Weather View 32 v70,2013-06-11 23:00:00,
2013-06-11 16:10:00,76.1,53.1,29.92,WSW,252,11.0,16.0,45,0.00,,,0.00,0512,Weather View 32 v70,2013-06-11 23:10:00,
2013-06-11 16:15:00,76.0,53.7,29.92,WSW,252,11.0,16.0,46,0.00,,,0.00,0588,Weather View 32 v70,2013-06-11 23:15:00,
2013-06-11 16:20:00,75.7,53.4,29.92,West,274,13.0,16.0,46,0.00,,,0.00,0496,Weather View 32 v70,2013-06-11 23:20:00,
2013-06-11 16:25:00,75.1,53.4,29.92,WNW,297,2.0,16.0,47,0.00,,,0.00,0452,Weather View 32 v70,2013-06-11 23:25:00,
2013-06-11 16:30:00,74.9,53.8,29.91,WSW,252,5.0,16.0,48,0.00,,,0.00,0279,Weather View 32 v70,2013-06-11 23:30:00,
2013-06-11 16:40:00,74.7,53.6,29.91,WSW,252,7.0,16.0,48,0.00,,,0.00,0655,Weather View 32 v70,2013-06-11 23:40:00,
2013-06-11 16:45:00,75.0,53.3,29.92,SSW,207,12.0,16.0,47,0.00,,,0.00,0757,Weather View 32 v70,2013-06-11 23:45:00,
2013-06-11 16:50:00,76.0,53.7,29.91,South,184,7.0,16.0,46,0.00,,,0.00,0302,Weather View 32 v70,2013-06-11 23:50:00,
2013-06-11 16:55:00,75.9,53.6,29.92,WSW,252,7.0,16.0,46,0.00,,,0.00,0362,Weather View 32 v70,2013-06-11 23:55:00,
2013-06-11 17:00:00,75.4,53.7,29.92,SW,229,7.0,16.0,47,0.00,,,0.00,0445,Weather View 32 v70,2013-06-12 00:00:00,
2013-06-11 17:10:00,75.2,54.1,29.91,NW,319,9.0,16.0,48,0.00,,,0.00,0337,Weather View 32 v70,2013-06-12 00:10:00,
2013-06-11 17:15:00,74.5,53.5,29.91,SW,229,7.0,16.0,48,0.00,,,0.00,0402,Weather View 32 v70,2013-06-12 00:15:00,
2013-06-11 17:20:00,73.8,53.4,29.92,WSW,252,6.0,16.0,49,0.00,,,0.00,0301,Weather View 32 v70,2013-06-12 00:20:00,
2013-06-11 17:25:00,73.0,53.2,29.92,WSW,252,11.0,16.0,50,0.00,,,0.00,0395,Weather View 32 v70,2013-06-12 00:25:00,
2013-06-11 17:35:00,73.5,54.2,29.91,South,184,4.0,16.0,51,0.00,,,0.00,0255,Weather View 32 v70,2013-06-12 00:35:00,
2013-06-11 17:40:00,73.4,53.6,29.91,NW,319,4.0,16.0,50,0.00,,,0.00,0222,Weather View 32 v70,2013-06-12 00:40:00,
2013-06-11 17:45:00,72.8,53.6,29.91,WNW,297,6.0,15.0,51,0.00,,,0.00,0167,Weather View 32 v70,2013-06-12 00:45:00,
2013-06-11 17:50:00,72.5,53.8,29.91,NW,319,3.0,15.0,52,0.00,,,0.00,0137,Weather View 32 v70,2013-06-12 00:50:00,
2013-06-11 17:58:00,72.3,53.6,29.91,NW,319,7.0,15.0,52,0.00,,,0.00,0133,Weather View 32 v70,2013-06-12 00:58:00,
2013-06-11 18:05:00,71.6,53.5,29.91,NW,319,4.0,15.0,53,0.00,,,0.00,0121,Weather View 32 v70,2013-06-12 01:05:00,
2013-06-11 18:10:00,70.3,52.8,29.91,NNW,342,6.0,15.0,54,0.00,,,0.00,0099,Weather View 32 v70,2013-06-12 01:10:00,
2013-06-11 18:15:00,70.2,53.2,29.91,WNW,297,3.0,15.0,55,0.00,,,0.00,0096,Weather View 32 v70,2013-06-12 01:15:00,
2013-06-11 18:20:00,68.8,51.9,29.91,NW,319,6.0,14.0,55,0.00,,,0.00,0094,Weather View 32 v70,2013-06-12 01:20:00,
2013-06-11 18:30:00,68.5,52.1,29.91,North,4,4.0,11.0,56,0.00,,,0.00,0131,Weather View 32 v70,2013-06-12 01:30:00,
2013-06-11 18:35:00,68.4,52.0,29.91,NNW,342,6.0,11.0,56,0.00,,,0.00,0261,Weather View 32 v70,2013-06-12 01:35:00,
2013-06-11 18:40:00,68.6,51.7,29.91,NNE,27,4.0,10.0,55,0.00,,,0.00,0292,Weather View 32 v70,2013-06-12 01:40:00,
2013-06-11 18:45:00,69.0,52.1,29.91,NW,319,5.0,10.0,55,0.00,,,0.00,0323,Weather View 32 v70,2013-06-12 01:45:00,
2013-06-11 18:50:00,69.2,51.8,29.91,WNW,297,4.0,10.0,54,0.00,,,0.00,0371,Weather View 32 v70,2013-06-12 01:50:00,
2013-06-11 18:59:00,69.8,51.8,29.91,NW,319,2.0,10.0,53,0.00,,,0.00,0314,Weather View 32 v70,2013-06-12 01:59:00,
2013-06-11 19:05:00,70.2,51.7,29.91,SSW,207,3.0,10.0,52,0.00,,,0.00,0111,Weather View 32 v70,2013-06-12 02:05:00,
2013-06-11 19:10:00,70.3,51.8,29.91,WSW,252,1.0,10.0,52,0.00,,,0.00,0105,Weather View 32 v70,2013-06-12 02:10:00,
2013-06-11 19:15:00,70.4,51.9,29.91,ESE,117,0.0,10.0,52,0.00,,,0.00,0093,Weather View 32 v70,2013-06-12 02:15:00,
2013-06-11 19:20:00,70.6,51.5,29.91,SE,139,1.0,9.0,51,0.00,,,0.00,0083,Weather View 32 v70,2013-06-12 02:20:00,
2013-06-11 19:30:00,69.5,52.1,29.91,SE,139,3.0,9.0,54,0.00,,,0.00,0095,Weather View 32 v70,2013-06-12 02:30:00,
2013-06-11 19:35:00,69.3,51.9,29.91,SE,139,3.0,9.0,54,0.00,,,0.00,0127,Weather View 32 v70,2013-06-12 02:35:00,
2013-06-11 19:40:00,69.0,52.1,29.91,SE,139,4.0,9.0,55,0.00,,,0.00,0048,Weather View 32 v70,2013-06-12 02:40:00,
2013-06-11 19:45:00,68.9,52.5,29.91,South,184,2.0,9.0,56,0.00,,,0.00,0046,Weather View 32 v70,2013-06-12 02:45:00,
2013-06-11 19:50:00,68.7,52.3,29.91,SE,139,2.0,9.0,56,0.00,,,0.00,0043,Weather View 32 v70,2013-06-12 02:50:00,
2013-06-11 19:55:00,68.6,52.7,29.91,SSE,162,4.0,9.0,57,0.00,,,0.00,0039,Weather View 32 v70,2013-06-12 02:55:00,
2013-06-11 20:05:00,68.0,52.6,29.91,South,184,4.0,7.0,58,0.00,,,0.00,0027,Weather View 32 v70,2013-06-12 03:05:00,
2013-06-11 20:10:00,67.8,52.4,29.91,SSE,162,4.0,7.0,58,0.00,,,0.00,0022,Weather View 32 v70,2013-06-12 03:10:00,
2013-06-11 20:15:00,67.4,52.5,29.91,SE,139,4.0,7.0,59,0.00,,,0.00,0018,Weather View 32 v70,2013-06-12 03:15:00,
2013-06-11 20:20:00,67.2,52.3,29.91,SE,139,2.0,7.0,59,0.00,,,0.00,0014,Weather View 32 v70,2013-06-12 03:20:00,
2013-06-11 20:30:00,66.5,52.1,29.92,South,184,4.0,6.0,60,0.00,,,0.00,0009,Weather View 32 v70,2013-06-12 03:30:00,
2013-06-11 20:35:00,66.2,51.9,29.92,South,184,1.0,6.0,60,0.00,,,0.00,0007,Weather View 32 v70,2013-06-12 03:35:00,
2013-06-11 20:40:00,65.7,51.8,29.92,South,184,2.0,6.0,61,0.00,,,0.00,0005,Weather View 32 v70,2013-06-12 03:40:00,
2013-06-11 20:45:00,65.1,51.7,29.92,SSE,162,1.0,6.0,62,0.00,,,0.00,0003,Weather View 32 v70,2013-06-12 03:45:00,
2013-06-11 20:50:00,64.7,51.8,29.92,South,184,1.0,6.0,63,0.00,,,0.00,0002,Weather View 32 v70,2013-06-12 03:50:00,
2013-06-11 21:00:00,63.9,51.5,29.92,SSE,162,1.0,6.0,64,0.00,,,0.00,0002,Weather View 32 v70,2013-06-12 04:00:00,
2013-06-11 21:05:00,63.5,51.5,29.92,SSE,162,1.0,5.0,65,0.00,,,0.00,0002,Weather View 32 v70,2013-06-12 04:05:00,
2013-06-11 21:10:00,62.9,51.3,29.92,South,184,1.0,5.0,66,0.00,,,0.00,0001,Weather View 32 v70,2013-06-12 04:10:00,
2013-06-11 21:15:00,62.7,51.1,29.92,SSW,207,0.0,5.0,66,0.00,,,0.00,0001,Weather View 32 v70,2013-06-12 04:15:00,
2013-06-11 21:20:00,62.4,51.3,29.93,South,184,0.0,4.0,67,0.00,,,0.00,0002,Weather View 32 v70,2013-06-12 04:20:00,
2013-06-11 21:25:00,62.1,51.0,29.93,South,184,0.0,4.0,67,0.00,,,0.00,0001,Weather View 32 v70,2013-06-12 04:25:00,
2013-06-11 21:35:00,61.5,50.8,29.93,South,184,0.0,3.0,68,0.00,,,0.00,0001,Weather View 32 v70,2013-06-12 04:35:00,
2013-06-11 21:40:00,60.9,50.6,29.93,South,184,0.0,3.0,69,0.00,,,0.00,0001,Weather View 32 v70,2013-06-12 04:40:00,
2013-06-11 21:45:00,60.5,50.6,29.93,SSW,207,0.0,3.0,70,0.00,,,0.00,0001,Weather View 32 v70,2013-06-12 04:45:00,
2013-06-11 21:50:00,60.3,50.8,29.93,SSW,207,0.0,3.0,71,0.00,,,0.00,0001,Weather View 32 v70,2013-06-12 04:50:00,
2013-06-11 21:55:00,59.9,50.5,29.93,SSW,207,0.0,3.0,71,0.00,,,0.00,0001,Weather View 32 v70,2013-06-12 04:55:00,
2013-06-11 22:01:00,59.7,50.6,29.94,South,184,0.0,3.0,72,0.00,,,0.00,0001,Weather View 32 v70,2013-06-12 05:01:00,
2013-06-11 22:10:00,59.4,50.7,29.93,SSW,207,0.0,3.0,73,0.00,,,0.00,0001,Weather View 32 v70,2013-06-12 05:10:00,
2013-06-11 22:15:00,59.4,51.1,29.93,SW,229,0.0,0.0,74,0.00,,,0.00,0001,Weather View 32 v70,2013-06-12 05:15:00,
2013-06-11 22:20:00,59.3,51.0,29.94,SW,229,0.0,0.0,74,0.00,,,0.00,0001,Weather View 32 v70,2013-06-12 05:20:00,
2013-06-11 22:25:00,59.1,50.8,29.93,West,274,0.0,0.0,74,0.00,,,0.00,0002,Weather View 32 v70,2013-06-12 05:25:00,
2013-06-11 22:30:00,58.9,50.6,29.93,West,274,0.0,0.0,74,0.00,,,0.00,0001,Weather View 32 v70,2013-06-12 05:30:00,
2013-06-11 22:40:00,58.8,50.9,29.93,West,274,0.0,0.0,75,0.00,,,0.00,0001,Weather View 32 v70,2013-06-12 05:40:00,
2013-06-11 22:45:00,58.7,50.8,29.93,West,274,0.0,0.0,75,0.00,,,0.00,0001,Weather View 32 v70,2013-06-12 05:45:00,
2013-06-11 22:50:00,58.6,50.7,29.93,South,184,0.0,0.0,75,0.00,,,0.00,0001,Weather View 32 v70,2013-06-12 05:50:00,
2013-06-11 22:55:00,58.4,50.5,29.93,SW,229,0.0,0.0,75,0.00,,,0.00,0001,Weather View 32 v70,2013-06-12 05:55:00,
2013-06-11 23:00:00,58.2,50.7,29.93,SW,229,0.0,0.0,76,0.00,,,0.00,0001,Weather View 32 v70,2013-06-12 06:00:00,
2013-06-11 23:05:00,58.1,50.9,29.93,WSW,252,0.0,0.0,77,0.00,,,0.00,0002,Weather View 32 v70,2013-06-12 06:05:00,
2013-06-11 23:15:00,57.9,50.7,29.93,South,184,0.0,0.0,77,0.00,,,0.00,0001,Weather View 32 v70,2013-06-12 06:15:00,
2013-06-11 23:20:00,57.8,50.6,29.93,SSW,207,0.0,0.0,77,0.00,,,0.00,0001,Weather View 32 v70,2013-06-12 06:20:00,
2013-06-11 23:25:00,57.7,50.9,29.93,ESE,117,0.0,0.0,78,0.00,,,0.00,0001,Weather View 32 v70,2013-06-12 06:25:00,
2013-06-11 23:30:00,57.5,50.7,29.93,SW,229,0.0,0.0,78,0.00,,,0.00,0001,Weather View 32 v70,2013-06-12 06:30:00,
2013-06-11 23:35:00,57.4,50.6,29.93,SW,229,0.0,0.0,78,0.00,,,0.00,0001,Weather View 32 v70,2013-06-12 06:35:00,
2013-06-11 23:45:00,57.2,50.7,29.93,SSW,207,0.0,0.0,79,0.00,,,0.00,0001,Weather View 32 v70,2013-06-12 06:45:00,
2013-06-11 23:50:00,57.2,50.7,29.93,SSW,207,0.0,0.0,79,0.00,,,0.00,0001,Weather View 32 v70,2013-06-12 06:50:00,
2013-06-11 23:55:00,57.2,50.7,29.93,West,274,0.0,0.0,79,0.00,,,0.00,0001,Weather View 32 v70,2013-06-12 06:55:00,